Little Rock, AR (72201)

7:28 AM CDT on March 31, 2015 (GMT -0500)
Pulaski Heights | | Change Station
CLOSE
Current Station
Personal Weather Station
Location: Little Rock, AR
Elevation: 600 ft
Nearby Weather Stations

Elev 600 ft 34.78 °N, 92.34 °W | Updated 8 seconds ago

Overcast
Overcast
60.8 °F
Feels Like 60.8 °F
N
0.0
Wind Variable Wind from North
Gusts 0.0 mph

Today
High -- | Low -- °F
--% Chance of Precip.
Yesterday
High -- | Low -- °F
Precip. -- in
6:57 AM 7:29 PM
Waxing Gibbous, 86% visible
Pressure 30.01 in
Visibility 10.0 miles
Clouds Scattered Clouds 4100 ft
Overcast 15000 ft
Dew Point 44 °F
Humidity 55%
Rainfall 0.00 in
Snow Depth Not available.
UV 0 out of 12
Pollen 10.50 out of 12
Air Quality Not available.
Flu Activity Not available.
METAR KLIT 311153Z 20004KT 10SM SCT041 OVC150 15/13 A3000 RMK AO2 SLP161 T01500128 10167 20139 53003

More Conditions Fewer Conditions

Pressure 30.01 in
Visibility 10.0 miles
Clouds Scattered Clouds 4100 ft
Overcast 15000 ft
Dew Point 44 °F
Humidity 55%
Rainfall 0.00 in
Snow Depth Not available.
UV 0 out of 12
Pollen 10.50 out of 12
Air Quality Not available.
Flu Activity Not available.
METAR KLIT 311153Z 20004KT 10SM SCT041 OVC150 15/13 A3000 RMK AO2 SLP161 T01500128 10167 20139 53003

More Conditions Fewer Conditions

10-Day Weather Forecast

Almanac

Astronomy

Mar. 31, 2015 Rise Set
Actual Time
Civil Twilight
Nautical Twilight
Astronomical Twilight
Moon
Length of Visible Light
Length of Day
Tomorrow will be .
, % of the Moon is Illuminated

Today's Extremes

State Highs State Lows

Community

WunderPhotos

Upload Photos

1,809,753 photos uploaded!

WunderBlogs® & News

Nearby

Air Quality

  Air Quality AQ Index Pollutant
Not available.

Snow Depth

Station Depth Elevation

Earthquake Activity

City Distance Mag. Time & Date
Minimum magnitude displayed is 2.5.

Coastal Water Temperatures

Place Temperature

Stations

Nearby Weather Stations

Station Location Temp. Windchill Dew Point Humidity Wind Precip. Elev Updated Type